Alton, Indiana
Current Conditions -  °F | °C
As of 1:58 AM on Monday 22 Dec 2014 (Local Time) from KFTK Reporting Station
Broken Clouds Broken Clouds  
Wind Chill: 28°   Ceiling: 4400
Heat Index: 33°   Visibility: 10mi
Dew Point: 28°   Wind: 6mph
Humidity: 82%   Direction: 60°ENE
Pressure: 29.99"   Gusts: NA
Location:  38.1914°N, 86.3619°W
Report Text: KFTK 220658Z AUTO 06005KT 10SM BKN044 01/M02 A2999 RMK AO2 SLP163 T00061022
Loading
Personal Weather Stations






























Interactive Weather Map New forecast layout! Learn more

10-Day Weather Forecast

Advertisements
Track Severe Weather on mobile